Time;durP1;ratioP1;P1;durP2;ratioP2;P2;SDS_P1;SDS_P2;PMS_P1;PMS_P2;Temp;Humidity;BMP_temperature;BMP_pressure;BME280_temperature;BME280_humidity;BME280_pressure;Samples;Min_cycle;Max_cycle;Signal;HPM_P1;HPM_P2
2024/02/29 00:02:03;;;;;;;2.20;2.00;;;;;;;0.72;100.00;101592.25;4870452;29;20195;-65
2024/02/29 00:04:33;;;;;;;4.60;4.15;;;;;;;0.60;100.00;101588.75;4869528;29;20722;-65
2024/02/29 00:07:03;;;;;;;3.42;3.13;;;;;;;0.66;100.00;101577.59;4881657;29;20555;-66
2024/02/29 00:09:32;;;;;;;5.72;3.20;;;;;;;0.62;100.00;101581.50;4881320;29;20246;-64
2024/02/29 00:12:01;;;;;;;2.30;2.20;;;;;;;0.49;100.00;101586.06;4881565;29;20202;-65
2024/02/29 00:14:29;;;;;;;15.80;6.28;;;;;;;0.60;100.00;101586.06;4875203;29;20611;-66
2024/02/29 00:17:00;;;;;;;3.80;1.83;;;;;;;0.60;100.00;101586.06;4878536;29;20565;-66
2024/02/29 00:19:31;;;;;;;3.88;3.58;;;;;;;0.53;100.00;101584.88;4875795;29;20725;-65
2024/02/29 00:22:00;;;;;;;6.88;6.13;;;;;;;0.55;100.00;101584.75;4874363;29;20227;-64
2024/02/29 00:24:30;;;;;;;8.68;4.80;;;;;;;0.48;100.00;101576.41;4881332;29;20247;-64
2024/02/29 00:26:59;;;;;;;2.28;1.65;;;;;;;0.71;100.00;101561.25;4881534;29;20195;-65
2024/02/29 00:29:28;;;;;;;8.48;6.93;;;;;;;0.52;100.00;101572.53;4880127;29;20245;-66
2024/02/29 00:32:00;;;;;;;4.68;2.35;;;;;;;0.55;100.00;101569.59;4877575;29;20210;-65
2024/02/29 00:34:29;;;;;;;9.35;4.55;;;;;;;0.56;100.00;101578.44;4881434;29;20251;-64
2024/02/29 00:36:58;;;;;;;5.57;3.88;;;;;;;0.44;100.00;101565.13;4875868;29;20227;-62
2024/02/29 00:39:28;;;;;;;6.60;1.70;;;;;;;0.62;100.00;101564.66;4881760;29;20317;-66
2024/02/29 00:41:57;;;;;;;3.00;1.00;;;;;;;0.62;100.00;101562.00;4879961;29;20226;-66
2024/02/29 00:44:26;;;;;;;9.77;3.25;;;;;;;0.49;100.00;101566.56;4877362;29;20203;-64
2024/02/29 00:46:55;;;;;;;6.45;4.40;;;;;;;0.41;100.00;101564.53;4875299;29;20227;-67
2024/02/29 00:49:24;;;;;;;9.35;3.63;;;;;;;0.34;100.00;101558.81;4868603;29;20212;-66
2024/02/29 00:51:52;;;;;;;7.18;3.75;;;;;;;0.39;100.00;101555.78;4876573;29;20191;-65
2024/02/29 00:54:24;;;;;;;9.10;2.42;;;;;;;0.42;100.00;101567.09;4880440;29;20242;-67
2024/02/29 00:56:54;;;;;;;3.17;2.85;;;;;;;0.36;100.00;101556.06;4874099;29;20277;-65
2024/02/29 00:59:23;;;;;;;2.45;2.13;;;;;;;0.60;100.00;101559.44;4870276;29;20224;-67
2024/02/29 01:01:51;;;;;;;4.32;3.15;;;;;;;0.44;100.00;101565.13;4880554;29;20202;-65
2024/02/29 01:04:20;;;;;;;9.00;1.65;;;;;;;0.44;100.00;101565.13;4877674;29;20194;-66
2024/02/29 01:06:49;;;;;;;1.92;1.77;;;;;;;0.44;100.00;101559.81;4876256;29;20195;-66
2024/02/29 01:09:20;;;;;;;7.78;5.82;;;;;;;0.33;100.00;101557.16;4875113;29;20313;-66
2024/02/29 01:11:49;;;;;;;6.22;1.88;;;;;;;0.31;100.00;101561.75;4876456;29;20225;-66
2024/02/29 01:14:19;;;;;;;5.45;3.00;;;;;;;0.46;100.00;101558.84;4875729;29;20230;-66
2024/02/29 01:16:48;;;;;;;7.07;2.47;;;;;;;0.48;100.00;101570.22;4873108;29;20206;-66
2024/02/29 01:19:17;;;;;;;4.07;3.72;;;;;;;0.42;100.00;101572.41;4872939;29;20234;-64
2024/02/29 01:21:46;;;;;;;9.57;2.83;;;;;;;0.31;100.00;101575.06;4880345;29;20198;-65
2024/02/29 01:24:15;;;;;;;11.02;2.28;;;;;;;0.28;100.00;101563.81;4880226;29;20191;-65
2024/02/29 01:26:43;;;;;;;1.80;1.70;;;;;;;0.31;100.00;101566.22;4880042;29;20251;-65
2024/02/29 01:29:12;;;;;;;2.83;2.63;;;;;;;0.21;100.00;101552.78;4880737;29;20278;-66
2024/02/29 01:31:42;;;;;;;5.90;2.15;;;;;;;0.30;100.00;101560.03;4878545;29;20626;-66
2024/02/29 01:34:11;;;;;;;13.85;5.55;;;;;;;0.38;100.00;101556.78;4879948;29;20333;-66
2024/02/29 01:36:40;;;;;;;4.43;3.67;;;;;;;0.19;100.00;101549.41;4874708;29;20198;-67
2024/02/29 01:39:08;;;;;;;2.55;1.98;;;;;;;0.48;100.00;101538.28;4867376;29;20230;-66
2024/02/29 01:41:37;;;;;;;8.00;2.42;;;;;;;0.37;100.00;101536.44;4870218;29;20251;-65
2024/02/29 01:44:06;;;;;;;2.78;2.45;;;;;;;0.25;100.00;101538.25;4880461;29;20247;-66
2024/02/29 01:46:35;;;;;;;3.45;3.15;;;;;;;0.50;100.00;101544.31;4880882;29;20199;-66
2024/02/29 01:49:05;;;;;;;2.75;2.55;;;;;;;0.26;100.00;101537.28;4880563;29;20769;-67
2024/02/29 01:51:35;;;;;;;6.60;4.25;;;;;;;0.27;100.00;101536.31;4879034;29;20737;-66
2024/02/29 01:54:04;;;;;;;3.13;2.90;;;;;;;0.35;100.00;101520.59;4874734;29;20199;-66
2024/02/29 01:56:32;;;;;;;5.90;5.35;;;;;;;0.42;100.00;101518.31;4880330;29;20222;-66
2024/02/29 01:59:02;;;;;;;3.17;2.42;;;;;;;0.34;100.00;101516.22;4879861;29;20233;-66
2024/02/29 02:01:32;;;;;;;3.95;3.60;;;;;;;0.22;100.00;101519.88;4865973;29;20255;-66
2024/02/29 02:04:01;;;;;;;3.40;3.10;;;;;;;0.16;100.00;101519.50;4864345;29;20277;-65
2024/02/29 02:06:32;;;;;;;4.65;4.35;;;;;;;0.22;100.00;101517.22;4879380;29;20607;-65
2024/02/29 02:09:01;;;;;;;5.20;3.15;;;;;;;0.30;100.00;101509.47;4879208;29;20226;-66
2024/02/29 02:11:30;;;;;;;5.28;4.10;;;;;;;0.33;100.00;101509.22;4876207;29;20234;-65
2024/02/29 02:13:59;;;;;;;3.38;2.35;;;;;;;0.35;100.00;101507.28;4879279;29;20206;-65
2024/02/29 02:16:28;;;;;;;1.70;1.42;;;;;;;0.35;100.00;101498.44;4879268;29;20214;-66
2024/02/29 02:18:56;;;;;;;3.13;2.72;;;;;;;0.38;100.00;101500.88;4877451;29;20215;-66
2024/02/29 02:21:27;;;;;;;7.45;3.65;;;;;;;0.21;100.00;101488.88;4879685;29;20194;-66
2024/02/29 02:23:55;;;;;;;18.77;4.57;;;;;;;0.29;100.00;101490.97;4875116;29;20198;-66
2024/02/29 02:26:24;;;;;;;3.10;2.50;;;;;;;0.27;100.00;101477.75;4869043;29;20668;-65
2024/02/29 02:28:53;;;;;;;6.30;5.72;;;;;;;0.27;100.00;101472.44;4871613;29;20313;-66
2024/02/29 02:31:22;;;;;;;4.90;4.50;;;;;;;0.32;100.00;101472.91;4873456;29;20215;-66
2024/02/29 02:33:50;;;;;;;5.15;3.83;;;;;;;0.23;100.00;101470.16;4873282;29;20191;-66
2024/02/29 02:36:19;;;;;;;3.63;3.33;;;;;;;0.23;100.00;101471.00;4878147;29;20692;-66
2024/02/29 02:38:49;;;;;;;2.17;1.95;;;;;;;0.25;100.00;101462.88;4877477;29;20215;-66
2024/02/29 02:41:18;;;;;;;4.18;3.45;;;;;;;0.17;100.00;101459.97;4875220;29;20195;-66
2024/02/29 02:43:49;;;;;;;19.60;4.07;;;;;;;0.11;100.00;101461.31;4879240;29;20198;-67
2024/02/29 02:46:19;;;;;;;7.40;6.78;;;;;;;0.21;100.00;101462.28;4879101;29;20195;-67
2024/02/29 02:48:48;;;;;;;2.42;2.13;;;;;;;0.13;100.00;101455.88;4877064;29;20225;-67
2024/02/29 02:51:16;;;;;;;3.35;3.15;;;;;;;0.12;100.00;101446.19;4873138;29;20205;-66
2024/02/29 02:53:45;;;;;;;4.25;3.95;;;;;;;0.07;100.00;101443.03;4877394;29;20697;-62
2024/02/29 02:56:15;;;;;;;9.43;5.18;;;;;;;0.06;100.00;101431.53;4878694;29;20198;-65
2024/02/29 02:58:44;;;;;;;3.20;2.90;;;;;;;0.03;100.00;101436.28;4874132;29;20297;-65
2024/02/29 03:01:13;;;;;;;9.63;5.38;;;;;;;0.11;100.00;101437.34;4869149;29;20569;-66
2024/02/29 03:03:42;;;;;;;3.67;3.33;;;;;;;-0.03;100.00;101437.59;4878214;29;20205;-66
2024/02/29 03:06:13;;;;;;;4.93;4.53;;;;;;;0.06;100.00;101436.03;4870409;29;20604;-63
2024/02/29 03:08:42;;;;;;;5.30;2.53;;;;;;;0.06;100.00;101434.22;4878331;29;20249;-66
2024/02/29 03:11:11;;;;;;;6.55;4.65;;;;;;;0.07;100.00;101435.06;4874736;29;20200;-66
2024/02/29 03:13:42;;;;;;;2.47;2.28;;;;;;;0.13;100.00;101442.56;4877643;29;20198;-67
2024/02/29 03:16:10;;;;;;;6.18;5.70;;;;;;;0.09;100.00;101433.97;4878722;29;20662;-65
2024/02/29 03:18:39;;;;;;;5.65;4.38;;;;;;;0.04;100.00;101422.84;4876297;29;20730;-62
2024/02/29 03:21:08;;;;;;;4.47;4.00;;;;;;;0.12;100.00;101414.25;4868507;29;20190;-67
2024/02/29 03:23:37;;;;;;;4.20;3.90;;;;;;;0.00;100.00;101411.59;4870539;29;20753;-65
2024/02/29 03:26:07;;;;;;;10.02;2.10;;;;;;;0.13;100.00;101407.97;4861401;29;20227;-66
2024/02/29 03:28:36;;;;;;;3.25;2.95;;;;;;;0.06;100.00;101410.25;4875357;29;20278;-64
2024/02/29 03:31:11;;;;;;;13.27;4.60;;;;;;;0.02;100.00;101406.16;4869176;29;20634;-65
2024/02/29 03:33:40;;;;;;;7.05;3.92;;;;;;;0.09;100.00;101403.84;4877614;29;20611;-65
2024/02/29 03:36:09;;;;;;;4.10;3.67;;;;;;;-0.01;100.00;101401.09;4878601;29;20585;-66
2024/02/29 03:38:40;;;;;;;32.25;6.25;;;;;;;0.06;100.00;101399.63;4878458;29;20207;-64
2024/02/29 03:41:08;;;;;;;2.35;2.08;;;;;;;-0.04;100.00;101409.28;4877100;29;20238;-65
2024/02/29 03:43:37;;;;;;;3.28;2.47;;;;;;;-0.17;100.00;101413.91;4878568;29;20207;-65
2024/02/29 03:46:09;;;;;;;7.20;6.60;;;;;;;-0.11;100.00;101416.09;4876855;29;20200;-66
2024/02/29 03:48:38;;;;;;;2.45;2.25;;;;;;;-0.07;100.00;101404.22;4881311;29;20577;-65
2024/02/29 03:51:08;;;;;;;8.70;5.45;;;;;;;-0.11;100.00;101394.78;4882763;29;20190;-65
2024/02/29 03:53:37;;;;;;;2.70;2.50;;;;;;;-0.26;100.00;101401.31;4881641;29;20666;-65
2024/02/29 03:56:06;;;;;;;5.85;1.88;;;;;;;-0.10;100.00;101399.16;4881327;29;20194;-65
2024/02/29 03:58:35;;;;;;;7.85;5.10;;;;;;;-0.09;100.00;101395.50;4870860;29;20278;-63
2024/02/29 04:01:05;;;;;;;6.45;4.90;;;;;;;-0.04;100.00;101398.66;4881319;29;20270;-66
2024/02/29 04:03:35;;;;;;;2.38;2.13;;;;;;;-0.09;100.00;101395.50;4881441;29;20210;-66
2024/02/29 04:06:05;;;;;;;5.30;3.42;;;;;;;-0.02;100.00;101396.72;4874451;29;20737;-66
2024/02/29 04:08:34;;;;;;;5.43;4.95;;;;;;;0.04;100.00;101385.59;4880650;29;20221;-65
2024/02/29 04:11:03;;;;;;;8.65;4.32;;;;;;;-0.13;100.00;101378.94;4880313;29;20191;-65
2024/02/29 04:13:33;;;;;;;16.48;6.03;;;;;;;-0.19;100.00;101373.25;4876743;29;20199;-65
2024/02/29 04:16:02;;;;;;;3.47;1.77;;;;;;;-0.06;100.00;101364.19;4880571;29;20199;-65
2024/02/29 04:18:31;;;;;;;1.70;1.60;;;;;;;-0.15;100.00;101369.41;4881395;29;20219;-65
2024/02/29 04:21:01;;;;;;;5.88;5.32;;;;;;;-0.13;100.00;101357.66;4877586;29;20219;-65
2024/02/29 04:23:30;;;;;;;3.72;3.53;;;;;;;-0.26;100.00;101367.59;4879993;29;20670;-67
2024/02/29 04:25:59;;;;;;;6.13;3.08;;;;;;;-0.19;100.00;101362.63;4875591;29;20570;-66
2024/02/29 04:28:28;;;;;;;4.78;3.70;;;;;;;-0.09;100.00;101363.56;4880915;29;20234;-64
2024/02/29 04:30:57;;;;;;;11.23;6.95;;;;;;;-0.12;100.00;101377.13;4877833;29;20191;-66
2024/02/29 04:33:26;;;;;;;12.20;5.28;;;;;;;-0.02;100.00;101359.47;4880951;29;20206;-65
2024/02/29 04:35:54;;;;;;;5.78;3.72;;;;;;;-0.11;100.00;101368.19;4881106;29;20865;-66
2024/02/29 04:38:25;;;;;;;3.95;3.55;;;;;;;-0.02;100.00;101364.78;4880836;29;20689;-66
2024/02/29 04:40:55;;;;;;;8.07;4.88;;;;;;;-0.10;100.00;101369.91;4879681;29;20211;-66
2024/02/29 04:43:24;;;;;;;7.53;3.42;;;;;;;-0.11;100.00;101363.72;4874948;29;20266;-66
2024/02/29 04:45:54;;;;;;;13.25;6.35;;;;;;;-0.16;100.00;101375.69;4880927;29;20199;-66
2024/02/29 04:48:23;;;;;;;9.90;4.85;;;;;;;-0.06;100.00;101358.88;4880491;29;20223;-66
2024/02/29 04:50:52;;;;;;;5.10;3.08;;;;;;;-0.15;100.00;101359.63;4876730;29;20191;-66
2024/02/29 04:53:21;;;;;;;10.05;5.47;;;;;;;-0.13;100.00;101360.31;4879545;29;20198;-66
2024/02/29 04:55:51;;;;;;;7.72;4.35;;;;;;;-0.12;100.00;101358.50;4873947;29;20607;-66
2024/02/29 04:58:20;;;;;;;4.10;3.78;;;;;;;-0.09;100.00;101359.09;4880454;29;20234;-65
2024/02/29 05:00:49;;;;;;;5.55;3.85;;;;;;;-0.03;100.00;101368.41;4872965;29;20225;-66
2024/02/29 05:03:18;;;;;;;7.65;4.65;;;;;;;-0.02;100.00;101360.31;4877801;29;20221;-65
2024/02/29 05:05:47;;;;;;;2.85;2.53;;;;;;;-0.18;100.00;101373.16;4880469;29;20205;-67
2024/02/29 05:08:15;;;;;;;4.82;4.43;;;;;;;-0.05;100.00;101365.88;4880272;29;20236;-65
2024/02/29 05:10:44;;;;;;;9.05;4.70;;;;;;;0.13;100.00;101368.91;4872205;29;20198;-65
2024/02/29 05:13:15;;;;;;;7.07;3.85;;;;;;;0.13;100.00;101366.22;4867936;29;20282;-66
2024/02/29 05:15:43;;;;;;;5.47;5.00;;;;;;;0.08;100.00;101365.75;4870006;29;20198;-65
2024/02/29 05:18:12;;;;;;;2.00;1.42;;;;;;;0.00;100.00;101370.84;4879976;29;20203;-66
2024/02/29 05:20:41;;;;;;;12.27;5.63;;;;;;;-0.04;100.00;101366.72;4875178;29;20218;-65
2024/02/29 05:23:11;;;;;;;3.85;3.50;;;;;;;-0.02;100.00;101359.47;4873851;29;20247;-65
2024/02/29 05:25:40;;;;;;;4.35;3.13;;;;;;;-0.10;100.00;101356.59;4879871;29;20198;-65
2024/02/29 05:28:09;;;;;;;2.72;2.25;;;;;;;-0.11;100.00;101354.91;4880009;29;20194;-66
2024/02/29 05:30:39;;;;;;;4.80;3.70;;;;;;;-0.17;100.00;101355.38;4872784;29;20195;-66
2024/02/29 05:33:08;;;;;;;6.22;3.22;;;;;;;-0.14;100.00;101352.47;4875208;29;20226;-68
2024/02/29 05:35:38;;;;;;;3.85;2.92;;;;;;;-0.22;100.00;101347.75;4879658;29;20230;-65
2024/02/29 05:38:35;;;;;;;7.32;3.75;;;;;;;-0.10;100.00;101348.59;4871101;29;20199;-66
2024/02/29 05:41:05;;;;;;;4.40;4.00;;;;;;;-0.06;100.00;101329.63;4866432;29;20206;-67
2024/02/29 05:43:35;;;;;;;7.80;6.43;;;;;;;-0.06;100.00;101326.97;4878976;29;20281;-66
2024/02/29 05:46:05;;;;;;;10.70;4.43;;;;;;;0.15;100.00;101328.81;4879802;29;20213;-66
2024/02/29 05:48:37;;;;;;;1.65;1.55;;;;;;;0.07;100.00;101323.28;4880354;29;20222;-65
2024/02/29 05:51:07;;;;;;;6.50;5.95;;;;;;;0.11;100.00;101330.91;4880207;29;20190;-66
2024/02/29 05:53:36;;;;;;;5.90;5.30;;;;;;;0.14;100.00;101328.00;4885577;29;20285;-64
2024/02/29 05:56:05;;;;;;;9.23;3.45;;;;;;;0.11;100.00;101324.72;4877859;29;20202;-66
2024/02/29 05:58:34;;;;;;;8.52;4.05;;;;;;;0.09;100.00;101324.88;4875952;29;20238;-65
2024/02/29 06:01:03;;;;;;;12.25;5.85;;;;;;;0.12;100.00;101329.94;4874523;29;20221;-66
2024/02/29 06:03:33;;;;;;;5.63;3.78;;;;;;;0.13;100.00;101333.44;4879298;29;20604;-65
2024/02/29 06:06:02;;;;;;;9.07;1.85;;;;;;;0.16;100.00;101336.69;4879491;29;20210;-67
2024/02/29 06:08:31;;;;;;;14.40;5.80;;;;;;;0.22;100.00;101336.22;4879667;29;20223;-66
2024/02/29 06:11:00;;;;;;;4.95;4.55;;;;;;;0.28;100.00;101325.06;4871668;29;20207;-66
2024/02/29 06:13:30;;;;;;;11.60;5.35;;;;;;;0.23;100.00;101337.91;4876458;29;20199;-67
2024/02/29 06:16:01;;;;;;;4.50;4.15;;;;;;;0.26;100.00;101337.63;4877709;29;20243;-66
2024/02/29 06:18:30;;;;;;;5.40;4.15;;;;;;;0.36;100.00;101338.59;4874959;29;20231;-66
2024/02/29 06:21:00;;;;;;;14.98;6.95;;;;;;;0.23;100.00;101345.88;4879579;29;20678;-66
2024/02/29 06:23:29;;;;;;;5.00;4.60;;;;;;;0.40;100.00;101337.34;4873683;29;20286;-66
2024/02/29 06:25:57;;;;;;;8.23;4.82;;;;;;;0.33;100.00;101333.53;4873013;29;20191;-65
2024/02/29 06:28:28;;;;;;;7.32;4.55;;;;;;;0.53;100.00;101328.38;4879408;29;20215;-67
2024/02/29 06:30:57;;;;;;;3.28;2.10;;;;;;;0.63;100.00;101323.97;4877900;29;20191;-66
2024/02/29 06:33:26;;;;;;;5.20;4.70;;;;;;;0.78;100.00;101328.84;4872483;29;20195;-67
2024/02/29 06:35:55;;;;;;;5.07;3.42;;;;;;;0.72;100.00;101333.84;4875106;29;20227;-65
2024/02/29 06:38:26;;;;;;;7.47;3.05;;;;;;;0.87;100.00;101325.41;4874577;29;20240;-66
2024/02/29 06:40:55;;;;;;;5.85;5.38;;;;;;;1.02;100.00;101325.06;4878288;29;20215;-66
2024/02/29 06:43:24;;;;;;;20.08;6.90;;;;;;;1.04;100.00;101328.47;4874605;29;20671;-65
2024/02/29 06:45:53;;;;;;;15.55;6.32;;;;;;;1.00;100.00;101322.56;4878498;29;20210;-66
2024/02/29 06:48:22;;;;;;;5.13;4.25;;;;;;;1.01;100.00;101321.59;4876193;29;20703;-65
2024/02/29 06:50:51;;;;;;;10.52;7.43;;;;;;;1.01;100.00;101318.09;4877463;29;20194;-66
2024/02/29 06:53:20;;;;;;;7.82;6.85;;;;;;;1.28;100.00;101310.38;4878726;29;20250;-66
2024/02/29 06:55:51;;;;;;;12.45;5.50;;;;;;;1.27;100.00;101308.69;4878231;29;20202;-65
2024/02/29 06:58:21;;;;;;;8.68;3.80;;;;;;;1.24;100.00;101317.81;4879106;29;20211;-66
2024/02/29 07:00:53;;;;;;;6.55;3.88;;;;;;;1.33;100.00;101304.66;4878454;29;20802;-66
2024/02/29 07:03:22;;;;;;;12.00;4.50;;;;;;;1.52;100.00;101307.41;4873358;29;20290;-64
2024/02/29 07:05:51;;;;;;;5.93;5.40;;;;;;;1.53;100.00;101301.09;4872393;29;20195;-65
2024/02/29 07:08:20;;;;;;;4.30;2.03;;;;;;;1.70;100.00;101303.13;4878590;29;20226;-66
2024/02/29 07:10:51;;;;;;;6.60;5.65;;;;;;;1.78;100.00;101303.31;4877085;29;20199;-66
2024/02/29 07:13:20;;;;;;;2.78;2.58;;;;;;;1.87;100.00;101301.63;4879055;29;20198;-67
2024/02/29 07:15:49;;;;;;;6.68;4.20;;;;;;;2.01;100.00;101302.09;4882268;29;20210;-66
2024/02/29 07:18:18;;;;;;;5.88;5.05;;;;;;;1.97;100.00;101302.50;4882668;29;20221;-67
2024/02/29 07:20:46;;;;;;;8.73;5.47;;;;;;;2.12;100.00;101307.31;4878381;29;20206;-68
2024/02/29 07:23:16;;;;;;;4.07;3.55;;;;;;;2.18;100.00;101309.41;4882065;29;20199;-67
2024/02/29 07:25:44;;;;;;;8.00;3.45;;;;;;;2.34;100.00;101305.38;4882129;29;20192;-66
2024/02/29 07:28:14;;;;;;;6.18;5.70;;;;;;;2.48;100.00;101308.47;4883419;29;20198;-66
2024/02/29 07:30:43;;;;;;;8.27;4.93;;;;;;;2.54;100.00;101307.06;4878689;29;20279;-65
2024/02/29 07:33:12;;;;;;;3.40;1.92;;;;;;;2.57;100.00;101306.78;4872411;29;20713;-66
2024/02/29 07:35:41;;;;;;;16.98;7.25;;;;;;;2.63;100.00;101308.91;4882069;29;20678;-66
2024/02/29 07:38:10;;;;;;;5.57;3.92;;;;;;;2.68;100.00;101309.31;4881877;29;20698;-66
2024/02/29 07:40:39;;;;;;;4.88;3.17;;;;;;;2.75;100.00;101302.44;4881437;29;20201;-65
2024/02/29 07:43:08;;;;;;;12.60;5.13;;;;;;;2.97;100.00;101296.78;4881846;29;20204;-66
2024/02/29 07:45:39;;;;;;;8.88;2.38;;;;;;;2.93;99.32;101297.22;4881678;29;20216;-66
2024/02/29 07:48:08;;;;;;;6.38;3.65;;;;;;;2.84;98.54;101303.41;4877903;29;20761;-67
2024/02/29 07:50:37;;;;;;;4.47;3.80;;;;;;;2.92;98.32;101301.72;4882044;29;20196;-65
2024/02/29 07:53:08;;;;;;;6.78;4.10;;;;;;;2.95;97.68;101305.94;4882077;29;20257;-66
2024/02/29 07:55:37;;;;;;;10.00;6.15;;;;;;;3.02;97.23;101307.88;4876190;29;20694;-65
2024/02/29 07:58:06;;;;;;;7.35;4.55;;;;;;;3.08;96.67;101301.13;4880249;29;20236;-67
2024/02/29 08:00:37;;;;;;;11.05;4.68;;;;;;;3.07;95.88;101296.75;4878961;29;20204;-65
2024/02/29 08:03:08;;;;;;;6.57;4.78;;;;;;;3.11;95.32;101308.84;4876065;29;20220;-66
2024/02/29 08:05:38;;;;;;;6.00;5.18;;;;;;;3.10;95.88;101309.00;4881677;29;20196;-66
2024/02/29 08:08:11;;;;;;;8.25;5.43;;;;;;;3.34;95.47;101309.38;4881561;29;20203;-66
2024/02/29 08:10:40;;;;;;;9.38;3.78;;;;;;;3.43;94.91;101306.66;4881236;29;20293;-66
2024/02/29 08:13:09;;;;;;;5.75;4.15;;;;;;;3.47;94.77;101301.84;4877477;29;20201;-66
2024/02/29 08:15:38;;;;;;;13.43;6.25;;;;;;;3.54;94.07;101302.94;4880223;29;20198;-65
2024/02/29 08:18:08;;;;;;;5.93;4.05;;;;;;;3.70;92.32;101297.81;4880990;29;20198;-66
2024/02/29 08:20:38;;;;;;;12.68;4.00;;;;;;;3.77;91.97;101304.28;4881188;29;20227;-66
2024/02/29 08:23:07;;;;;;;8.65;5.10;;;;;;;3.77;91.89;101293.56;4876233;29;20209;-67
2024/02/29 08:25:36;;;;;;;6.40;3.28;;;;;;;3.97;91.73;101290.78;4870599;29;20700;-66
2024/02/29 08:28:06;;;;;;;6.90;2.78;;;;;;;3.98;90.52;101285.25;4881018;29;20196;-64
2024/02/29 08:30:35;;;;;;;12.98;5.30;;;;;;;4.14;89.52;101279.25;4880571;29;20193;-65
2024/02/29 08:33:05;;;;;;;11.32;8.45;;;;;;;4.10;90.40;101284.06;4880626;29;20209;-65
2024/02/29 08:35:35;;;;;;;4.78;2.72;;;;;;;4.36;89.68;101281.47;4875660;29;20673;-64
2024/02/29 08:38:04;;;;;;;8.98;5.82;;;;;;;4.46;88.66;101274.19;4878610;29;20206;-63
2024/02/29 08:40:33;;;;;;;10.52;3.50;;;;;;;4.44;88.01;101276.22;4880875;29;20198;-65
2024/02/29 08:43:09;;;;;;;5.15;3.67;;;;;;;4.72;87.93;101272.44;4879165;29;20210;-65
2024/02/29 08:45:38;;;;;;;4.68;4.20;;;;;;;4.84;86.01;101274.88;4879068;29;20198;-65
2024/02/29 08:48:08;;;;;;;11.15;3.50;;;;;;;4.90;85.07;101274.22;4878755;29;20289;-65
2024/02/29 08:50:38;;;;;;;11.88;5.75;;;;;;;5.04;84.80;101271.81;4876172;29;20679;-64
2024/02/29 08:53:07;;;;;;;16.70;4.10;;;;;;;5.21;84.32;101264.75;4876428;29;20251;-65
2024/02/29 08:55:36;;;;;;;13.50;5.38;;;;;;;5.34;83.33;101269.66;4880124;29;20199;-63
2024/02/29 08:58:05;;;;;;;3.60;3.10;;;;;;;5.17;83.17;101268.75;4874906;29;20580;-64
2024/02/29 09:00:35;;;;;;;6.65;4.03;;;;;;;5.40;82.24;101272.56;4880887;29;20611;-66
2024/02/29 09:03:04;;;;;;;10.32;5.28;;;;;;;5.55;81.32;101256.69;4874362;29;20772;-64
2024/02/29 09:05:33;;;;;;;6.03;3.30;;;;;;;5.65;80.77;101258.25;4873978;29;20203;-66
2024/02/29 09:08:03;;;;;;;10.55;4.38;;;;;;;5.59;81.22;101256.22;4878594;29;20199;-65
2024/02/29 09:10:33;;;;;;;12.18;4.95;;;;;;;5.92;81.14;101259.06;4874867;29;20673;-66
2024/02/29 09:13:03;;;;;;;7.53;4.00;;;;;;;6.07;79.71;101255.56;4885545;29;20252;-64
2024/02/29 09:15:52;;;;;;;8.82;5.32;;;;;;;6.24;77.99;101250.25;4882189;29;20255;-65
2024/02/29 09:18:22;;;;;;;4.35;2.85;;;;;;;6.22;78.22;101253.09;4878094;29;20223;-66
2024/02/29 09:20:51;;;;;;;7.18;5.22;;;;;;;6.10;78.81;101247.16;4877552;29;20281;-66
2024/02/29 09:23:21;;;;;;;10.20;5.85;;;;;;;6.13;78.91;101243.34;4880051;29;20207;-66
2024/02/29 09:25:50;;;;;;;10.80;5.25;;;;;;;6.34;78.96;101249.06;4892727;29;20898;-66
2024/02/29 09:28:19;;;;;;;10.98;5.07;;;;;;;6.49;78.94;101241.19;4898224;29;20245;-66
2024/02/29 09:30:48;;;;;;;11.05;5.80;;;;;;;6.68;77.66;101240.84;4893668;29;20207;-66
2024/02/29 09:33:18;;;;;;;14.70;6.50;;;;;;;6.75;77.73;101243.72;4891844;29;20661;-64
2024/02/29 09:35:46;;;;;;;11.38;5.05;;;;;;;6.85;77.14;101236.31;4894510;29;20190;-65
2024/02/29 09:38:15;;;;;;;8.75;3.78;;;;;;;6.89;77.36;101238.50;4894901;29;20242;-65
2024/02/29 09:40:46;;;;;;;13.07;6.90;;;;;;;7.00;77.37;101242.69;4881743;29;20596;-65
2024/02/29 09:43:27;;;;;;;5.90;5.10;;;;;;;7.11;77.33;101236.97;4885883;29;20211;-64
2024/02/29 09:45:58;;;;;;;15.35;5.97;;;;;;;7.45;77.02;101234.00;4879920;29;20640;-66
2024/02/29 09:48:27;;;;;;;9.45;5.05;;;;;;;7.64;75.89;101233.59;4881954;29;20278;-66
2024/02/29 09:50:59;;;;;;;8.57;4.07;;;;;;;7.90;74.42;101235.13;4876213;29;20213;-65
2024/02/29 09:53:29;;;;;;;10.45;6.07;;;;;;;7.85;73.68;101228.41;4878685;29;20191;-64
2024/02/29 09:56:00;;;;;;;9.73;4.05;;;;;;;7.76;73.61;101226.78;4877150;29;20193;-65
2024/02/29 09:58:31;;;;;;;14.95;6.70;;;;;;;7.84;73.71;101224.03;4873089;29;20211;-65
2024/02/29 10:01:00;;;;;;;11.20;5.63;;;;;;;7.68;73.94;101223.28;4877314;29;20199;-66
2024/02/29 10:03:30;;;;;;;4.45;4.05;;;;;;;7.77;73.67;101216.84;4881647;29;20267;-66
2024/02/29 10:06:01;;;;;;;11.05;4.80;;;;;;;7.86;74.24;101216.63;4876978;29;20197;-66
2024/02/29 10:08:29;;;;;;;13.52;4.05;;;;;;;8.06;72.82;101214.31;4881902;29;20652;-65
2024/02/29 10:11:00;;;;;;;10.55;5.93;;;;;;;8.13;72.41;101223.38;4877968;29;20229;-66
2024/02/29 10:13:38;;;;;;;18.95;7.05;;;;;;;8.26;72.34;101212.00;4875047;29;20214;-66
2024/02/29 10:16:08;;;;;;;8.40;6.57;;;;;;;8.40;71.23;101207.72;4878014;29;20197;-66
2024/02/29 10:18:38;;;;;;;5.55;4.20;;;;;;;8.22;71.57;101214.22;4874284;29;20219;-66
2024/02/29 10:21:11;;;;;;;12.50;7.10;;;;;;;8.21;71.37;101199.06;4880954;29;20226;-66
2024/02/29 10:23:41;;;;;;;7.28;3.95;;;;;;;8.33;71.75;101198.69;4877571;29;20773;-64
2024/02/29 10:26:11;;;;;;;7.65;4.85;;;;;;;8.63;71.65;101208.53;4879200;29;20205;-66
2024/02/29 10:28:40;;;;;;;11.40;7.78;;;;;;;8.57;70.28;101203.84;4878286;29;20222;-65
2024/02/29 10:31:12;;;;;;;6.60;3.10;;;;;;;8.49;71.25;101204.78;4876618;29;20297;-65
2024/02/29 10:33:48;;;;;;;10.88;5.55;;;;;;;8.18;72.75;101206.69;4878585;29;20434;-66
2024/02/29 10:36:19;;;;;;;11.30;4.20;;;;;;;8.23;72.96;101194.31;4876825;29;20201;-65
2024/02/29 10:38:49;;;;;;;5.50;4.35;;;;;;;8.25;72.68;101199.53;4875855;29;20219;-66
2024/02/29 10:41:59;;;;;;;10.32;5.20;;;;;;;8.39;72.74;101190.69;4873822;29;20677;-65
2024/02/29 10:44:34;;;;;;;12.45;6.13;;;;;;;8.78;72.74;101190.53;4874943;29;20704;-64
2024/02/29 10:47:08;;;;;;;7.68;5.05;;;;;;;9.08;70.96;101189.56;4876871;29;20217;-65
2024/02/29 10:49:46;;;;;;;13.20;7.10;;;;;;;8.76;70.72;101187.19;4872003;29;20249;-65
2024/02/29 10:52:24;;;;;;;22.30;4.47;;;;;;;8.76;71.87;101189.03;4876459;29;20260;-65
2024/02/29 10:54:58;;;;;;;10.13;5.63;;;;;;;8.60;71.54;101182.78;4874726;29;20286;-66
2024/02/29 10:57:36;;;;;;;5.53;3.88;;;;;;;8.74;71.88;101178.44;4874471;29;20198;-66
2024/02/29 11:00:08;;;;;;;14.17;5.80;;;;;;;8.77;71.47;101178.06;4873937;29;20227;-65
2024/02/29 11:02:39;;;;;;;7.70;4.85;;;;;;;9.03;71.04;101167.66;4874051;29;20428;-65
2024/02/29 11:05:09;;;;;;;7.03;2.60;;;;;;;9.09;70.66;101163.41;4872565;29;20245;-64
2024/02/29 11:07:38;;;;;;;8.93;3.87;;;;;;;9.41;70.03;101164.84;4870650;29;20202;-66
2024/02/29 11:10:08;;;;;;;9.00;5.55;;;;;;;9.42;69.39;101174.66;4872812;29;20639;-65
2024/02/29 11:12:42;;;;;;;19.17;6.13;;;;;;;9.48;68.75;101165.78;4872803;29;20195;-65
2024/02/29 11:15:13;;;;;;;8.17;5.23;;;;;;;9.36;69.75;101159.19;4872087;29;20995;-64
2024/02/29 11:17:45;;;;;;;12.50;6.70;;;;;;;9.57;68.95;101159.25;4875329;29;20439;-65
2024/02/29 11:20:21;;;;;;;8.10;5.15;;;;;;;9.39;69.37;101146.13;4872543;29;20575;-65
2024/02/29 11:22:50;;;;;;;9.37;4.93;;;;;;;9.23;70.77;101142.81;4873881;29;20205;-66
2024/02/29 11:25:22;;;;;;;11.70;5.47;;;;;;;9.57;70.28;101133.06;4874142;29;20442;-66
2024/02/29 11:27:52;;;;;;;7.03;4.70;;;;;;;9.57;69.64;101129.53;4872342;29;20190;-64
2024/02/29 11:30:24;;;;;;;9.35;6.90;;;;;;;9.18;70.84;101120.94;4872182;29;20428;-67
2024/02/29 11:32:53;;;;;;;7.35;4.63;;;;;;;9.44;71.23;101110.47;4871980;29;20195;-65
2024/02/29 11:35:22;;;;;;;21.33;8.67;;;;;;;9.57;71.07;101116.03;4873562;29;20193;-65
2024/02/29 11:37:54;;;;;;;5.70;3.90;;;;;;;9.41;70.34;101110.84;4874594;29;20511;-66